createdAt,value
2023-04-01T02:07:17.530Z,2.53
2023-04-01T02:10:23.748Z,2.67
2023-04-01T02:13:36.290Z,2.98
2023-04-01T02:16:42.998Z,3.24
2023-04-01T02:19:59.954Z,3.47
2023-04-01T02:23:04.245Z,3.54
2023-04-01T02:26:09.805Z,3.57
2023-04-01T02:29:14.349Z,3.67
2023-04-01T02:32:21.951Z,3.74
2023-04-01T02:35:25.936Z,3.81
2023-04-01T02:38:29.298Z,3.88
2023-04-01T02:41:32.559Z,3.94
2023-04-01T02:44:35.890Z,3.97
2023-04-01T02:47:39.167Z,4.01
2023-04-01T02:50:43.364Z,4.03
2023-04-01T02:53:46.680Z,4.07
2023-04-01T02:56:50.041Z,3.98
2023-04-01T02:59:53.629Z,3.96
2023-04-01T03:02:58.054Z,3.88
2023-04-01T03:06:10.386Z,3.85
2023-04-01T03:09:13.562Z,3.81
2023-04-01T03:12:17.154Z,3.78
2023-04-01T03:15:26.740Z,3.82
2023-04-01T03:18:31.277Z,3.94
2023-04-01T03:21:34.649Z,4.05
2023-04-01T03:24:37.853Z,3.78
2023-04-01T03:27:41.184Z,3.62
2023-04-01T03:30:45.623Z,3.79
2023-04-01T03:33:49.176Z,3.90
2023-04-01T03:36:54.106Z,3.80
2023-04-01T03:39:57.255Z,3.45
2023-04-01T03:43:00.509Z,3.22
2023-04-01T03:46:03.882Z,3.13
2023-04-01T03:49:13.534Z,3.37
2023-04-01T03:52:16.706Z,3.53
2023-04-01T03:55:19.971Z,3.65
2023-04-01T03:58:23.828Z,3.65
2023-04-01T04:01:28.496Z,3.60
2023-04-01T04:04:32.820Z,3.63
2023-04-01T04:07:37.159Z,3.90
2023-04-01T04:10:44.608Z,4.16
2023-04-01T04:13:49.498Z,4.30
2023-04-01T04:16:52.385Z,4.42
2023-04-01T04:19:55.657Z,4.45
2023-04-01T04:22:58.904Z,4.38
2023-04-01T04:26:07.837Z,4.36
2023-04-01T04:29:11.788Z,4.29
2023-04-01T04:32:15.170Z,4.25
2023-04-01T04:35:18.399Z,4.14
2023-04-01T04:38:22.520Z,4.20
2023-04-01T04:41:27.361Z,4.18
2023-04-01T04:44:30.554Z,4.19
2023-04-01T04:47:34.497Z,4.10
2023-04-01T04:50:37.755Z,4.14
2023-04-01T04:53:41.126Z,4.32
2023-04-01T04:56:44.506Z,4.39
2023-04-01T04:59:47.886Z,4.37
2023-04-01T05:02:59.316Z,4.36
2023-04-01T05:06:02.607Z,4.35
2023-04-01T05:09:06.412Z,4.28
2023-04-01T05:12:09.720Z,4.28
2023-04-01T05:15:31.723Z,4.14
2023-04-01T05:18:35.164Z,3.92
2023-04-01T05:21:38.403Z,3.87
2023-04-01T05:24:41.647Z,3.96
2023-04-01T05:27:45.292Z,3.78
2023-04-01T05:30:48.604Z,3.62
2023-04-01T05:34:03.198Z,3.55
2023-04-01T05:37:06.660Z,3.61
2023-04-01T05:40:10.691Z,3.61
2023-04-01T05:43:13.897Z,3.54
2023-04-01T05:46:18.861Z,3.47
2023-04-01T05:49:29.172Z,3.42
2023-04-01T05:52:32.438Z,3.29
2023-04-01T05:55:37.927Z,3.23
2023-04-01T05:58:42.001Z,3.17
2023-04-01T06:01:45.928Z,3.11
2023-04-01T06:04:49.620Z,3.09
2023-04-01T06:08:19.832Z,3.06
2023-04-01T06:11:46.314Z,3.11
2023-04-01T06:15:11.524Z,3.35
2023-04-01T06:18:23.940Z,3.64
2023-04-01T06:21:48.339Z,3.90
2023-04-01T06:25:09.846Z,4.03
2023-04-01T06:28:18.892Z,4.18
2023-04-01T06:31:56.806Z,4.33
2023-04-01T06:35:12.520Z,4.56
2023-04-01T06:38:41.298Z,4.68
2023-04-01T06:42:14.688Z,4.58
2023-04-01T06:45:49.076Z,4.43
2023-04-01T06:49:35.974Z,4.23
2023-04-01T06:53:08.994Z,4.20
2023-04-01T06:56:31.645Z,4.48
2023-04-01T06:59:39.828Z,4.71
2023-04-01T07:02:55.332Z,4.63
2023-04-01T07:06:04.656Z,4.83
2023-04-01T07:09:16.649Z,4.91
2023-04-01T07:12:56.811Z,4.97
2023-04-01T07:16:29.205Z,4.99
2023-04-01T07:20:16.459Z,4.92
2023-04-01T07:23:31.312Z,4.71
2023-04-01T07:27:11.483Z,4.34
2023-04-01T07:30:18.768Z,4.28
2023-04-01T07:33:37.896Z,4.36
2023-04-01T07:37:10.609Z,4.43
2023-04-01T07:40:27.840Z,4.47
2023-04-01T07:43:49.592Z,4.64
2023-04-01T07:47:12.242Z,4.55
2023-04-01T07:50:31.843Z,4.60
2023-04-01T07:53:37.925Z,4.50
2023-04-01T07:56:49.607Z,4.48
2023-04-01T08:00:08.944Z,4.25
2023-04-01T08:03:32.810Z,4.30
2023-04-01T08:06:47.558Z,4.36
2023-04-01T08:10:16.063Z,4.43
2023-04-01T08:13:49.604Z,4.48
2023-04-01T08:17:43.203Z,4.38
2023-04-01T08:21:05.599Z,4.32
2023-04-01T08:24:21.424Z,4.17
2023-04-01T08:28:07.435Z,4.13
2023-04-01T08:31:17.246Z,3.90
2023-04-01T08:34:29.288Z,3.80
2023-04-01T08:37:38.737Z,3.74
2023-04-01T08:41:01.141Z,3.64
2023-04-01T08:44:54.698Z,3.57
2023-04-01T08:48:17.100Z,3.60
2023-04-01T08:51:29.320Z,3.64
2023-04-01T08:54:40.156Z,3.56
2023-04-01T08:57:58.517Z,3.46
2023-04-01T09:01:49.868Z,3.42
2023-04-01T09:05:38.176Z,3.24
2023-04-01T09:09:20.151Z,3.35
2023-04-01T09:12:47.570Z,3.35
2023-04-01T09:15:53.819Z,3.36
2023-04-01T09:19:31.412Z,3.32
2023-04-01T09:22:53.519Z,3.30
2023-04-01T09:26:05.441Z,3.23
2023-04-01T09:29:49.377Z,3.21
2023-04-01T09:33:16.171Z,3.11
2023-04-01T09:36:52.310Z,2.98
2023-04-01T09:40:21.657Z,2.98
2023-04-01T09:44:11.457Z,3.02
2023-04-01T09:48:01.749Z,3.02
2023-04-01T09:51:55.325Z,3.01
2023-04-01T09:55:35.687Z,3.04
2023-04-01T09:58:53.329Z,2.96
2023-04-01T10:02:51.432Z,2.91
2023-04-01T10:06:16.397Z,2.86
2023-04-01T10:09:35.530Z,2.84
2023-04-01T10:13:14.618Z,2.76
2023-04-01T10:16:52.758Z,2.76
2023-04-01T10:20:10.642Z,2.72
2023-04-01T10:23:44.982Z,2.65
2023-04-01T10:27:23.084Z,2.60
2023-04-01T10:30:55.019Z,2.54
2023-04-01T10:34:58.919Z,2.48
2023-04-01T10:38:46.043Z,2.39
2023-04-01T10:42:42.978Z,2.39
2023-04-01T10:46:35.378Z,2.38
2023-04-01T10:50:37.288Z,2.31
2023-04-01T10:54:13.738Z,2.26
2023-04-01T10:58:00.963Z,2.22
2023-04-01T11:02:09.982Z,2.13
2023-04-01T11:05:52.596Z,2.09
2023-04-01T11:09:16.087Z,1.97
2023-04-01T11:12:31.266Z,1.91
2023-04-01T11:15:56.691Z,1.84
2023-04-01T11:19:35.822Z,1.81
2023-04-01T11:22:59.788Z,1.76
2023-04-01T11:26:43.244Z,1.73
2023-04-01T11:30:43.310Z,1.65
2023-04-01T11:33:59.076Z,1.49
2023-04-01T11:37:23.686Z,1.45
2023-04-01T11:41:24.914Z,1.41
2023-04-01T11:45:20.037Z,1.25
2023-04-01T11:48:28.910Z,1.26
2023-04-01T11:51:38.468Z,1.27
2023-04-01T11:55:08.765Z,1.24
2023-04-01T11:58:41.928Z,1.17
2023-04-01T12:02:01.497Z,1.14
2023-04-01T12:05:16.950Z,1.18
2023-04-01T12:08:50.630Z,1.13
2023-04-01T12:12:13.963Z,1.11
2023-04-01T12:15:39.266Z,1.03
2023-04-01T12:18:54.087Z,1.05
2023-04-01T12:22:09.207Z,0.99
2023-04-01T12:25:24.632Z,0.95
2023-04-01T12:28:44.381Z,0.88
2023-04-01T12:32:02.530Z,0.79
2023-04-01T12:35:19.090Z,0.71
2023-04-01T12:39:07.778Z,0.61
2023-04-01T12:42:27.180Z,0.57
2023-04-01T12:45:33.217Z,0.52
2023-04-01T12:48:36.573Z,0.56
2023-04-01T12:51:39.901Z,0.52
2023-04-01T12:55:01.248Z,0.52
2023-04-01T12:58:22.800Z,0.54
2023-04-01T13:01:37.894Z,0.56
2023-04-01T13:04:41.867Z,0.57
2023-04-01T13:07:58.062Z,0.62
2023-04-01T13:11:33.814Z,0.63
2023-04-01T13:14:36.989Z,0.70
2023-04-01T13:17:55.011Z,0.70
2023-04-01T13:21:01.461Z,0.65
2023-04-01T13:24:19.376Z,0.65
2023-04-01T13:27:46.944Z,0.68
2023-04-01T13:30:56.810Z,0.62
2023-04-01T13:34:17.171Z,0.58
2023-04-01T13:37:37.485Z,0.56
2023-04-01T13:41:03.833Z,0.52
2023-04-01T13:44:19.571Z,0.49
2023-04-01T13:48:10.741Z,0.46
2023-04-01T13:51:26.176Z,0.43
2023-04-01T13:55:09.059Z,0.39
2023-04-01T13:58:40.291Z,0.42
2023-04-01T14:02:02.310Z,0.33
2023-04-01T14:05:32.457Z,0.31
2023-04-01T14:09:03.309Z,0.30
2023-04-01T14:12:11.069Z,0.25
2023-04-01T14:15:42.153Z,0.23
2023-04-01T14:18:58.571Z,0.19
2023-04-01T14:22:15.689Z,0.17
2023-04-01T14:25:47.834Z,0.14
2023-04-01T14:28:59.961Z,0.08
2023-04-01T14:32:26.151Z,0.10
2023-04-01T14:36:04.556Z,0.08
2023-04-01T14:39:36.875Z,-0.01
2023-04-01T14:42:58.898Z,-0.07
2023-04-01T14:46:16.916Z,-0.02
2023-04-01T14:49:24.059Z,-0.08
2023-04-01T14:52:36.046Z,-0.05
2023-04-01T14:55:42.056Z,-0.13
2023-04-01T14:58:59.064Z,-0.17
2023-04-01T15:02:20.618Z,-0.24
2023-04-01T15:05:42.807Z,-0.25
2023-04-01T15:09:23.677Z,-0.22
2023-04-01T15:12:51.148Z,-0.29
2023-04-01T15:16:44.793Z,-0.35
2023-04-01T15:20:19.941Z,-0.43
2023-04-01T15:23:57.096Z,-0.48
2023-04-01T15:27:23.850Z,-0.49
2023-04-01T15:31:15.370Z,-0.53
2023-04-01T15:34:52.467Z,-0.53
2023-04-01T15:38:13.388Z,-0.63
2023-04-01T15:41:49.830Z,-0.71
2023-04-01T15:45:15.526Z,-0.75
2023-04-01T15:48:47.828Z,-0.84
2023-04-01T15:52:39.712Z,-0.91
2023-04-01T15:55:53.306Z,-0.90
2023-04-01T15:59:22.744Z,-0.99
2023-04-01T16:02:58.406Z,-1.01
2023-04-01T16:06:52.419Z,-1.02
2023-04-01T16:10:09.375Z,-1.05
2023-04-01T16:14:08.036Z,-1.02
2023-04-01T16:17:34.635Z,-1.06
2023-04-01T16:20:59.833Z,-1.08
2023-04-01T16:24:27.546Z,-1.12
2023-04-01T16:28:03.143Z,-1.15
2023-04-01T16:31:21.857Z,-1.18
2023-04-01T16:35:07.308Z,-1.13
2023-04-01T16:38:41.466Z,-1.18
2023-04-01T16:42:23.558Z,-1.23
2023-04-01T16:45:37.829Z,-1.29
2023-04-01T16:49:17.373Z,-1.36
2023-04-01T16:52:51.007Z,-1.33
2023-04-01T16:56:07.899Z,-1.32
2023-04-01T16:59:38.544Z,-1.44
2023-04-01T17:03:11.486Z,-1.56
2023-04-01T17:06:43.494Z,-1.57
2023-04-01T17:10:07.672Z,-1.52
2023-04-01T17:13:40.845Z,-1.65
2023-04-01T17:17:30.639Z,-1.65
2023-04-01T17:20:50.769Z,-1.72
2023-04-01T17:24:36.068Z,-1.79
2023-04-01T17:27:56.200Z,-1.78
2023-04-01T17:31:14.830Z,-1.79
2023-04-01T17:34:25.598Z,-1.83
2023-04-01T17:37:53.258Z,-1.79
2023-04-01T17:41:20.402Z,-1.85
2023-04-01T17:44:32.573Z,-1.78
2023-04-01T17:47:59.971Z,-1.92
2023-04-01T17:51:38.500Z,-1.98
2023-04-01T17:54:50.997Z,-1.98
2023-04-01T17:58:36.164Z,-1.97
2023-04-01T18:02:22.346Z,-1.98
2023-04-01T18:05:52.987Z,-1.93
2023-04-01T18:09:19.336Z,-2.01
2023-04-01T18:13:13.544Z,-2.15
2023-04-01T18:16:34.303Z,-2.21
2023-04-01T18:20:22.364Z,-2.22
2023-04-01T18:23:30.990Z,-2.19
2023-04-01T18:26:39.057Z,-2.18
2023-04-01T18:30:08.234Z,-2.22
2023-04-01T18:34:06.632Z,-2.21
2023-04-01T18:37:30.409Z,-2.28
2023-04-01T18:40:57.280Z,-2.25
2023-04-01T18:44:17.267Z,-2.34
2023-04-01T18:48:04.465Z,-2.14
2023-04-01T18:51:46.735Z,-2.25
2023-04-01T18:54:54.825Z,-2.32
2023-04-01T18:58:29.555Z,-2.33
2023-04-01T19:02:18.999Z,-2.36
2023-04-01T19:05:51.098Z,-2.33
2023-04-01T19:08:57.233Z,-2.43
2023-04-01T19:12:32.366Z,-2.43
2023-04-01T19:16:02.934Z,-2.41
2023-04-01T19:19:49.727Z,-2.37
2023-04-01T19:23:18.732Z,-2.39
2023-04-01T19:26:31.891Z,-2.38
2023-04-01T19:30:08.582Z,-2.44
2023-04-01T19:33:53.204Z,-2.50
2023-04-01T19:37:19.123Z,-2.55
2023-04-01T19:40:48.571Z,-2.60
2023-04-01T19:44:31.189Z,-2.52
2023-04-01T19:47:59.838Z,-2.45
2023-04-01T19:51:32.850Z,-2.51
2023-04-01T19:54:51.841Z,-2.52
2023-04-01T19:58:11.591Z,-2.59
2023-04-01T20:01:59.419Z,-2.60
2023-04-01T20:05:39.074Z,-2.60
2023-04-01T20:08:48.670Z,-2.66
2023-04-01T20:12:22.981Z,-2.66
2023-04-01T20:15:40.071Z,-2.68
2023-04-01T20:19:02.733Z,-2.68
2023-04-01T20:22:31.076Z,-2.77
2023-04-01T20:25:49.513Z,-2.87
2023-04-01T20:29:11.694Z,-2.92
2023-04-01T20:32:34.761Z,-2.95
2023-04-01T20:35:53.278Z,-3.00
2023-04-01T20:39:37.700Z,-2.99
2023-04-01T20:43:06.524Z,-2.98
2023-04-01T20:46:12.313Z,-3.12
2023-04-01T20:49:30.501Z,-3.19
2023-04-01T20:53:06.564Z,-3.23
2023-04-01T20:56:32.681Z,-3.29
2023-04-01T21:00:03.452Z,-3.26
2023-04-01T21:03:46.746Z,-3.22
2023-04-01T21:07:35.767Z,-3.32
2023-04-01T21:11:26.100Z,-3.33
2023-04-01T21:15:01.613Z,-3.37
2023-04-01T21:18:44.932Z,-3.30
2023-04-01T21:22:15.116Z,-3.43
2023-04-01T21:25:44.217Z,-3.45
2023-04-01T21:29:06.064Z,-3.51
2023-04-01T21:32:54.466Z,-3.53
2023-04-01T21:36:11.603Z,-3.56
2023-04-01T21:39:26.247Z,-3.60
2023-04-01T21:43:02.068Z,-3.64
2023-04-01T21:46:44.052Z,-3.61
2023-04-01T21:50:26.469Z,-3.47
2023-04-01T21:54:03.605Z,-3.59
2023-04-01T21:57:11.514Z,-3.64
2023-04-01T22:00:38.074Z,-3.61
2023-04-01T22:04:02.269Z,-3.64
2023-04-01T22:07:25.282Z,-3.63
2023-04-01T22:11:20.025Z,-3.63
2023-04-01T22:14:28.974Z,-3.62
2023-04-01T22:17:47.799Z,-3.61
2023-04-01T22:21:15.343Z,-3.56
2023-04-01T22:24:33.568Z,-3.72
2023-04-01T22:28:03.667Z,-3.77
2023-04-01T22:31:26.305Z,-3.77
2023-04-01T22:35:00.564Z,-3.74
2023-04-01T22:38:28.903Z,-3.66
2023-04-01T22:41:53.074Z,-3.76
2023-04-01T22:45:16.505Z,-3.77
2023-04-01T22:48:40.954Z,-3.79
2023-04-01T22:51:54.334Z,-3.83
2023-04-01T22:55:07.248Z,-3.88
2023-04-01T22:58:28.249Z,-3.92
2023-04-01T23:01:47.051Z,-3.94
2023-04-01T23:05:18.872Z,-3.96
2023-04-01T23:08:54.033Z,-3.92
2023-04-01T23:12:07.658Z,-3.88
2023-04-01T23:15:20.356Z,-3.95
2023-04-01T23:18:38.581Z,-3.87
2023-04-01T23:22:00.413Z,-3.87
2023-04-01T23:25:46.478Z,-3.86
2023-04-01T23:29:01.039Z,-3.78
2023-04-01T23:32:15.267Z,-3.84
2023-04-01T23:35:18.940Z,-3.90
2023-04-01T23:38:28.029Z,-3.84
2023-04-01T23:41:33.645Z,-3.83
2023-04-01T23:44:38.148Z,-3.75
2023-04-01T23:47:42.851Z,-3.74
2023-04-01T23:50:46.161Z,-3.67
2023-04-01T23:53:57.916Z,-3.70
2023-04-01T23:57:06.324Z,-3.63
